createdAt,value
2023-10-11T00:00:41.506Z,22.65
2023-10-11T00:03:17.879Z,22.61
2023-10-11T00:05:46.922Z,22.60
2023-10-11T00:08:17.158Z,22.67
2023-10-11T00:10:54.834Z,22.73
2023-10-11T00:13:33.977Z,22.66
2023-10-11T00:16:08.380Z,22.65
2023-10-11T00:18:37.192Z,22.64
2023-10-11T00:21:17.555Z,22.63
2023-10-11T00:23:46.839Z,22.61
2023-10-11T00:26:17.752Z,22.63
2023-10-11T00:28:45.059Z,22.61
2023-10-11T00:31:20.298Z,22.62
2023-10-11T00:33:50.862Z,22.57
2023-10-11T00:36:22.285Z,22.60
2023-10-11T00:38:49.966Z,22.60
2023-10-11T00:41:21.962Z,22.59
2023-10-11T00:43:52.201Z,22.62
2023-10-11T00:46:26.335Z,22.62
2023-10-11T00:48:53.119Z,22.58
2023-10-11T00:51:27.257Z,22.61
2023-10-11T00:53:54.205Z,22.61
2023-10-11T00:56:21.899Z,22.61
2023-10-11T00:58:51.657Z,22.61
2023-10-11T01:01:18.752Z,22.64
2023-10-11T01:03:46.710Z,22.61
2023-10-11T01:06:13.654Z,22.63
2023-10-11T01:08:40.964Z,22.65
2023-10-11T01:11:14.652Z,22.57
2023-10-11T01:13:43.529Z,22.63
2023-10-11T01:16:11.486Z,22.65
2023-10-11T01:18:45.108Z,22.59
2023-10-11T01:21:13.909Z,22.61
2023-10-11T01:23:40.535Z,22.60
2023-10-11T01:26:09.105Z,22.59
2023-10-11T01:28:35.970Z,22.61
2023-10-11T01:31:09.805Z,22.55
2023-10-11T01:33:44.445Z,22.60
2023-10-11T01:36:24.202Z,22.61
2023-10-11T01:38:51.081Z,22.55
2023-10-11T01:41:27.975Z,22.58
2023-10-11T01:43:55.965Z,22.72
2023-10-11T01:46:36.353Z,22.66
2023-10-11T01:49:06.785Z,22.61
2023-10-11T01:51:40.363Z,22.62
2023-10-11T01:54:11.289Z,22.63
2023-10-11T01:56:39.395Z,22.63
2023-10-11T01:59:06.324Z,22.65
2023-10-11T02:01:40.906Z,22.64
2023-10-11T02:04:20.221Z,22.63
2023-10-11T02:06:49.432Z,22.60
2023-10-11T02:09:21.257Z,22.60
2023-10-11T02:11:53.262Z,22.63
2023-10-11T02:14:20.934Z,22.63
2023-10-11T02:16:47.398Z,22.61
2023-10-11T02:19:16.778Z,22.59
2023-10-11T02:21:46.291Z,22.61
2023-10-11T02:24:16.060Z,22.57
2023-10-11T02:26:50.572Z,22.56
2023-10-11T02:29:23.306Z,22.56
2023-10-11T02:31:51.493Z,22.57
2023-10-11T02:34:18.239Z,22.59
2023-10-11T02:36:46.534Z,22.57
2023-10-11T02:39:23.410Z,22.54
2023-10-11T02:41:51.686Z,22.54
2023-10-11T02:44:24.100Z,22.54
2023-10-11T02:46:52.258Z,22.53
2023-10-11T02:49:21.860Z,22.55
2023-10-11T02:51:57.454Z,22.56
2023-10-11T02:54:41.806Z,22.51
2023-10-11T02:57:19.906Z,22.51
2023-10-11T02:59:51.418Z,22.52
2023-10-11T03:02:18.038Z,22.51
2023-10-11T03:04:44.631Z,22.52
2023-10-11T03:07:24.622Z,22.48
2023-10-11T03:09:52.259Z,22.52
2023-10-11T03:12:32.093Z,22.50
2023-10-11T03:15:07.146Z,22.50
2023-10-11T03:17:33.632Z,22.51
2023-10-11T03:20:00.124Z,22.52
2023-10-11T03:22:30.032Z,22.52
2023-10-11T03:25:01.805Z,22.49
2023-10-11T03:27:28.748Z,22.53
2023-10-11T03:29:57.288Z,22.51
2023-10-11T03:32:26.697Z,22.50
2023-10-11T03:34:54.524Z,22.48
2023-10-11T03:37:21.047Z,22.51
2023-10-11T03:39:57.307Z,22.50
2023-10-11T03:42:43.189Z,22.51
2023-10-11T03:45:09.987Z,22.49
2023-10-11T03:47:38.912Z,22.47
2023-10-11T03:50:07.591Z,22.46
2023-10-11T03:52:34.208Z,22.46
2023-10-11T03:55:10.696Z,22.47
2023-10-11T03:57:42.663Z,22.47
2023-10-11T04:00:24.757Z,22.45
2023-10-11T04:02:58.983Z,22.45
2023-10-11T04:05:36.826Z,22.45
2023-10-11T04:08:07.491Z,22.45
2023-10-11T04:10:41.241Z,22.44
2023-10-11T04:13:10.627Z,22.45
2023-10-11T04:15:40.372Z,22.43
2023-10-11T04:18:16.509Z,22.46
2023-10-11T04:20:52.578Z,22.43
2023-10-11T04:23:25.558Z,22.43
2023-10-11T04:25:52.189Z,22.42
2023-10-11T04:28:18.707Z,22.43
2023-10-11T04:30:53.050Z,22.45
2023-10-11T04:33:22.229Z,22.43
2023-10-11T04:35:59.099Z,22.45
2023-10-11T04:38:25.659Z,22.43
2023-10-11T04:40:54.665Z,22.46
2023-10-11T04:43:27.313Z,22.45
2023-10-11T04:46:01.134Z,22.44
2023-10-11T04:48:37.862Z,22.44
2023-10-11T04:51:08.052Z,22.43
2023-10-11T04:53:38.566Z,22.45
2023-10-11T04:56:31.332Z,22.44
2023-10-11T04:59:07.061Z,22.41
2023-10-11T05:01:49.694Z,22.44
2023-10-11T05:04:17.899Z,22.42
2023-10-11T05:06:47.050Z,22.40
2023-10-11T05:09:16.167Z,22.43
2023-10-11T05:11:47.423Z,22.44
2023-10-11T05:14:32.895Z,22.42
2023-10-11T05:17:17.700Z,22.54
2023-10-11T05:20:10.142Z,22.50
2023-10-11T05:22:50.564Z,22.48
2023-10-11T05:25:21.014Z,22.50
2023-10-11T05:28:09.087Z,22.50
2023-10-11T05:30:36.235Z,22.50
2023-10-11T05:33:02.940Z,22.48
2023-10-11T05:35:52.519Z,22.48
2023-10-11T05:38:39.090Z,22.50
2023-10-11T05:41:27.606Z,22.48
2023-10-11T05:44:12.338Z,22.48
2023-10-11T05:46:57.101Z,22.48
2023-10-11T05:49:43.893Z,22.49
2023-10-11T05:52:10.448Z,22.47
2023-10-11T05:54:37.010Z,22.47
2023-10-11T05:57:05.247Z,22.49
2023-10-11T05:59:38.820Z,22.48
2023-10-11T06:02:14.514Z,22.46
2023-10-11T06:04:41.449Z,22.47
2023-10-11T06:07:10.870Z,22.47
2023-10-11T06:09:44.268Z,22.49
2023-10-11T06:12:23.777Z,22.48
2023-10-11T06:14:54.872Z,22.50
2023-10-11T06:17:34.256Z,22.55
2023-10-11T06:20:21.406Z,22.51
2023-10-11T06:22:47.944Z,22.49
2023-10-11T06:25:18.209Z,22.52
2023-10-11T06:27:59.800Z,22.54
2023-10-11T06:30:29.541Z,22.55
2023-10-11T06:32:58.091Z,22.56
2023-10-11T06:35:25.164Z,22.57
2023-10-11T06:37:56.539Z,22.55
2023-10-11T06:40:48.383Z,22.59
2023-10-11T06:43:15.629Z,22.44
2023-10-11T06:45:43.147Z,22.23
2023-10-11T06:48:11.737Z,22.17
2023-10-11T06:50:39.131Z,22.17
2023-10-11T06:53:08.427Z,22.14
2023-10-11T06:55:37.082Z,22.14
2023-10-11T06:58:10.867Z,22.17
2023-10-11T07:00:46.732Z,22.17
2023-10-11T07:03:28.475Z,22.18
2023-10-11T07:05:58.419Z,22.16
2023-10-11T07:08:36.047Z,22.17
2023-10-11T07:11:03.662Z,22.20
2023-10-11T07:13:44.477Z,22.25
2023-10-11T07:16:11.440Z,22.29
2023-10-11T07:18:44.827Z,22.30
2023-10-11T07:21:11.899Z,22.32
2023-10-11T07:23:52.641Z,22.35
2023-10-11T07:26:25.008Z,22.41
2023-10-11T07:28:53.145Z,22.39
2023-10-11T07:31:21.159Z,22.41
2023-10-11T07:33:51.616Z,22.42
2023-10-11T07:36:20.193Z,22.43
2023-10-11T07:38:48.163Z,22.40
2023-10-11T07:41:20.510Z,22.41
2023-10-11T07:43:47.008Z,22.39
2023-10-11T07:46:13.978Z,22.25
2023-10-11T07:48:41.052Z,22.23
2023-10-11T07:51:11.342Z,22.26
2023-10-11T07:53:45.502Z,22.39
2023-10-11T07:56:16.695Z,22.33
2023-10-11T07:58:47.055Z,22.34
2023-10-11T08:01:34.220Z,22.35
2023-10-11T08:04:00.809Z,22.34
2023-10-11T08:06:27.405Z,22.35
2023-10-11T08:09:04.830Z,22.37
2023-10-11T08:11:46.794Z,22.40
2023-10-11T08:14:16.534Z,22.35
2023-10-11T08:16:43.804Z,22.38
2023-10-11T08:19:12.490Z,22.37
2023-10-11T08:21:39.240Z,22.37
2023-10-11T08:24:07.804Z,22.33
2023-10-11T08:26:43.311Z,22.36
2023-10-11T08:29:26.728Z,22.34
2023-10-11T08:31:53.324Z,22.34
2023-10-11T08:34:19.830Z,22.36
2023-10-11T08:36:46.298Z,22.34
2023-10-11T08:39:14.579Z,22.34
2023-10-11T08:41:45.146Z,22.33
2023-10-11T08:44:21.608Z,22.32
2023-10-11T08:46:50.584Z,22.32
2023-10-11T08:49:18.804Z,22.34
2023-10-11T08:51:45.981Z,22.35
2023-10-11T08:54:16.170Z,22.34
2023-10-11T08:56:56.089Z,22.34
2023-10-11T08:59:26.392Z,22.29
2023-10-11T09:01:54.681Z,22.23
2023-10-11T09:04:27.772Z,22.26
2023-10-11T09:06:58.989Z,22.26
2023-10-11T09:09:42.468Z,22.22
2023-10-11T09:12:24.969Z,22.27
2023-10-11T09:15:02.080Z,22.27
2023-10-11T09:17:28.803Z,22.27
2023-10-11T09:19:59.556Z,22.28
2023-10-11T09:22:26.132Z,22.24
2023-10-11T09:25:25.394Z,22.28
2023-10-11T09:27:51.967Z,22.29
2023-10-11T09:30:24.405Z,22.23
2023-10-11T09:32:54.633Z,22.22
2023-10-11T09:35:27.660Z,22.25
2023-10-11T09:37:59.285Z,22.25
2023-10-11T09:40:29.389Z,22.22
2023-10-11T09:43:03.610Z,22.20
2023-10-11T09:45:44.094Z,22.20
2023-10-11T09:48:18.552Z,22.23
2023-10-11T09:50:45.409Z,22.23
2023-10-11T09:53:14.284Z,22.23
2023-10-11T09:56:16.496Z,22.22
2023-10-11T09:58:49.364Z,22.24
2023-10-11T10:01:27.788Z,22.24
2023-10-11T10:03:54.561Z,22.23
2023-10-11T10:06:23.248Z,22.18
2023-10-11T10:09:05.611Z,22.21
2023-10-11T10:12:10.862Z,22.24
2023-10-11T10:14:38.048Z,22.24
2023-10-11T10:17:11.819Z,22.24
2023-10-11T10:19:44.943Z,22.30
2023-10-11T10:22:16.281Z,22.32
2023-10-11T10:24:45.212Z,22.33
2023-10-11T10:27:39.159Z,22.36
2023-10-11T10:30:09.389Z,22.39
2023-10-11T10:32:36.663Z,22.41
2023-10-11T10:35:21.256Z,22.44
2023-10-11T10:37:47.835Z,22.46
2023-10-11T10:40:28.579Z,22.45
2023-10-11T10:43:07.319Z,22.47
2023-10-11T10:45:37.742Z,22.46
2023-10-11T10:48:25.180Z,22.45
2023-10-11T10:50:56.243Z,22.46
2023-10-11T10:53:25.719Z,22.37
2023-10-11T10:55:52.213Z,22.41
2023-10-11T10:58:20.191Z,22.42
2023-10-11T11:00:53.145Z,22.46
2023-10-11T11:03:26.500Z,22.43
2023-10-11T11:05:57.854Z,22.45
2023-10-11T11:08:32.676Z,22.44
2023-10-11T11:11:20.732Z,22.40
2023-10-11T11:13:48.782Z,22.47
2023-10-11T11:16:17.590Z,22.47
2023-10-11T11:18:45.084Z,22.51
2023-10-11T11:21:23.254Z,22.53
2023-10-11T11:23:50.830Z,22.47
2023-10-11T11:28:54.338Z,22.47
2023-10-11T11:31:23.803Z,22.47
2023-10-11T11:34:06.501Z,22.48
2023-10-11T11:36:35.958Z,22.47
2023-10-11T11:39:18.689Z,22.48
2023-10-11T11:41:48.860Z,22.48
2023-10-11T11:44:23.382Z,22.49
2023-10-11T11:46:54.212Z,22.50
2023-10-11T11:49:23.695Z,22.49
2023-10-11T11:51:54.444Z,22.50
2023-10-11T11:54:22.262Z,22.51
2023-10-11T11:56:49.300Z,22.50
2023-10-11T11:59:19.259Z,22.50
2023-10-11T12:01:50.497Z,22.54
2023-10-11T12:04:22.243Z,22.53
2023-10-11T12:06:49.389Z,22.53
2023-10-11T12:09:21.974Z,22.52
2023-10-11T12:11:50.808Z,22.58
2023-10-11T12:14:17.856Z,22.57
2023-10-11T12:16:44.593Z,22.58
2023-10-11T12:19:13.051Z,22.55
2023-10-11T12:21:40.416Z,22.57
2023-10-11T12:24:28.465Z,22.55
2023-10-11T12:26:59.370Z,22.53
2023-10-11T12:29:27.742Z,22.53
2023-10-11T12:31:55.373Z,22.51
2023-10-11T12:34:28.465Z,22.54
2023-10-11T12:36:55.272Z,22.54
2023-10-11T12:39:22.583Z,22.46
2023-10-11T12:41:52.539Z,22.53
2023-10-11T12:44:23.653Z,22.53
2023-10-11T12:46:52.377Z,22.59
2023-10-11T12:49:19.927Z,22.59
2023-10-11T12:51:47.849Z,22.62
2023-10-11T12:54:21.095Z,22.65
2023-10-11T12:56:48.592Z,22.58
2023-10-11T12:59:15.068Z,22.62
2023-10-11T13:01:43.623Z,22.64
2023-10-11T13:04:19.962Z,22.67
2023-10-11T13:06:52.735Z,22.70
2023-10-11T13:09:28.603Z,22.70
2023-10-11T13:11:57.659Z,22.75
2023-10-11T13:14:25.468Z,22.77
2023-10-11T13:16:55.221Z,22.77
2023-10-11T13:19:25.537Z,22.79
2023-10-11T13:21:56.737Z,22.81
2023-10-11T13:24:25.996Z,22.79
2023-10-11T13:26:53.418Z,22.83
2023-10-11T13:29:20.396Z,22.84
2023-10-11T13:31:58.177Z,22.84
2023-10-11T13:34:34.711Z,22.86
2023-10-11T13:37:02.270Z,22.86
2023-10-11T13:39:29.815Z,22.87
2023-10-11T13:42:04.807Z,22.88
2023-10-11T13:44:36.601Z,22.89
2023-10-11T13:47:05.041Z,22.88
2023-10-11T13:49:34.542Z,22.90
2023-10-11T13:52:04.036Z,22.90
2023-10-11T13:54:33.301Z,22.88
2023-10-11T13:57:01.278Z,22.89
2023-10-11T13:59:37.743Z,22.90
2023-10-11T14:02:25.243Z,22.93
2023-10-11T14:04:58.156Z,22.95
2023-10-11T14:07:34.342Z,22.95
2023-10-11T14:10:02.362Z,22.94
2023-10-11T14:12:30.598Z,22.95
2023-10-11T14:14:57.546Z,22.95
2023-10-11T14:17:26.219Z,22.96
2023-10-11T14:19:54.799Z,22.95
2023-10-11T14:22:23.091Z,22.89
2023-10-11T14:24:50.671Z,22.93
2023-10-11T14:27:20.257Z,23.00
2023-10-11T14:29:47.730Z,23.00
2023-10-11T14:32:18.425Z,23.02
2023-10-11T14:34:46.915Z,23.02
2023-10-11T14:37:15.046Z,22.99
2023-10-11T14:39:48.630Z,23.00
2023-10-11T14:42:16.449Z,23.00
2023-10-11T14:44:43.609Z,23.02
2023-10-11T14:47:15.034Z,23.00
2023-10-11T14:49:42.016Z,23.06
2023-10-11T14:52:09.439Z,23.09
2023-10-11T14:54:40.549Z,23.10
2023-10-11T14:57:08.604Z,23.12
2023-10-11T14:59:38.823Z,23.13
2023-10-11T15:02:05.968Z,23.15
2023-10-11T15:04:36.164Z,23.15
2023-10-11T15:07:02.671Z,23.16
2023-10-11T15:09:34.364Z,23.17
2023-10-11T15:12:01.249Z,23.17
2023-10-11T15:14:27.879Z,23.20
2023-10-11T15:16:59.339Z,23.19
2023-10-11T15:19:26.461Z,23.21
2023-10-11T15:21:53.708Z,23.19
2023-10-11T15:24:24.453Z,23.19
2023-10-11T15:26:51.996Z,23.17
2023-10-11T15:29:18.610Z,23.13
2023-10-11T15:31:45.143Z,23.06
2023-10-11T15:34:13.944Z,23.11
2023-10-11T15:36:43.661Z,23.11
2023-10-11T15:39:11.954Z,23.07
2023-10-11T15:41:39.019Z,23.10
2023-10-11T15:44:05.684Z,23.06
2023-10-11T15:46:32.293Z,23.03
2023-10-11T15:49:01.498Z,23.09
2023-10-11T15:51:28.271Z,23.06
2023-10-11T15:53:54.890Z,23.03
2023-10-11T15:56:21.421Z,23.06
2023-10-11T15:58:48.166Z,23.05
2023-10-11T16:01:15.606Z,23.01
2023-10-11T16:03:45.606Z,22.99
2023-10-11T16:06:13.336Z,23.03
2023-10-11T16:08:40.470Z,22.97
2023-10-11T16:11:11.167Z,22.98
2023-10-11T16:13:38.563Z,22.98
2023-10-11T16:16:07.038Z,22.98
2023-10-11T16:18:34.827Z,23.02
2023-10-11T16:21:04.349Z,22.99
2023-10-11T16:23:33.512Z,22.99
2023-10-11T16:26:02.076Z,22.91
2023-10-11T16:28:30.286Z,22.97
2023-10-11T16:30:58.921Z,22.95
2023-10-11T16:33:30.585Z,22.96
2023-10-11T16:35:59.843Z,22.98
2023-10-11T16:38:26.875Z,23.02
2023-10-11T16:40:54.822Z,22.92
2023-10-11T16:43:22.240Z,22.95
2023-10-11T16:45:49.222Z,23.01
2023-10-11T16:48:15.878Z,23.03
2023-10-11T16:50:45.031Z,22.98
2023-10-11T16:53:13.656Z,22.95
2023-10-11T16:55:42.075Z,22.89
2023-10-11T16:58:08.711Z,22.89
2023-10-11T17:00:35.296Z,22.87
2023-10-11T17:03:03.762Z,22.87
2023-10-11T17:05:35.402Z,22.89
2023-10-11T17:08:02.837Z,22.91
2023-10-11T17:10:29.393Z,22.87
2023-10-11T17:12:56.346Z,22.83
2023-10-11T17:15:26.310Z,22.84
2023-10-11T17:17:55.031Z,22.83
2023-10-11T17:20:25.977Z,22.83
2023-10-11T17:22:53.332Z,22.80
2023-10-11T17:25:20.912Z,22.89
2023-10-11T17:27:51.609Z,22.90
2023-10-11T17:30:19.643Z,22.80
2023-10-11T17:32:47.316Z,22.80
2023-10-11T17:35:16.541Z,22.78
2023-10-11T17:37:49.257Z,22.77
2023-10-11T17:40:19.504Z,22.80
2023-10-11T17:42:49.288Z,22.78
2023-10-11T17:45:18.426Z,22.78
2023-10-11T17:47:45.224Z,22.77
2023-10-11T17:50:14.414Z,22.76
2023-10-11T17:52:42.653Z,22.76
2023-10-11T17:55:10.201Z,22.76
2023-10-11T17:57:37.877Z,22.74
2023-10-11T18:00:08.465Z,22.80
2023-10-11T18:02:37.361Z,22.84
2023-10-11T18:05:07.269Z,22.78
2023-10-11T18:07:37.233Z,22.79
2023-10-11T18:10:04.585Z,22.74
2023-10-11T18:12:35.127Z,22.74
2023-10-11T18:15:06.268Z,22.75
2023-10-11T18:17:40.857Z,22.72
2023-10-11T18:20:12.612Z,22.70
2023-10-11T18:22:42.658Z,22.71
2023-10-11T18:25:11.066Z,22.73
2023-10-11T18:27:38.958Z,22.74
2023-10-11T18:30:06.414Z,22.72
2023-10-11T18:32:37.043Z,22.78
2023-10-11T18:35:05.453Z,22.75
2023-10-11T18:37:32.062Z,22.75
2023-10-11T18:39:59.803Z,22.75
2023-10-11T18:42:27.462Z,22.79
2023-10-11T18:44:54.768Z,22.76
2023-10-11T18:47:23.112Z,22.75
2023-10-11T18:49:50.084Z,22.75
2023-10-11T18:52:17.332Z,22.76
2023-10-11T18:54:43.928Z,22.74
2023-10-11T18:57:10.498Z,22.74
2023-10-11T18:59:37.018Z,22.79
2023-10-11T19:02:03.603Z,22.76
2023-10-11T19:04:30.077Z,22.75
2023-10-11T19:06:56.683Z,22.72
2023-10-11T19:09:24.355Z,22.81
2023-10-11T19:11:50.961Z,22.84
2023-10-11T19:14:17.677Z,22.82
2023-10-11T19:16:44.591Z,22.81
2023-10-11T19:19:13.187Z,22.80
2023-10-11T19:21:39.768Z,22.79
2023-10-11T19:24:09.885Z,22.80
2023-10-11T19:26:40.192Z,22.82
2023-10-11T19:29:06.703Z,22.94
2023-10-11T19:31:33.846Z,22.88
2023-10-11T19:34:00.452Z,22.94
2023-10-11T19:36:27.038Z,22.84
2023-10-11T19:38:53.652Z,22.82
2023-10-11T19:41:20.235Z,22.81
2023-10-11T19:43:46.729Z,22.78
2023-10-11T19:46:13.738Z,22.78
2023-10-11T19:48:42.587Z,22.79
2023-10-11T19:51:11.031Z,22.78
2023-10-11T19:53:38.098Z,22.75
2023-10-11T19:56:10.777Z,22.78
2023-10-11T19:58:37.705Z,22.78
2023-10-11T20:01:08.612Z,22.76
2023-10-11T20:03:38.367Z,22.77
2023-10-11T20:06:10.173Z,22.78
2023-10-11T20:08:40.838Z,22.74
2023-10-11T20:11:11.495Z,22.78
2023-10-11T20:13:39.430Z,22.72
2023-10-11T20:16:12.772Z,22.75
2023-10-11T20:18:42.545Z,22.75
2023-10-11T20:21:09.502Z,22.74
2023-10-11T20:23:36.548Z,22.76
2023-10-11T20:26:09.766Z,22.76
2023-10-11T20:28:38.693Z,22.76
2023-10-11T20:31:06.398Z,22.79
2023-10-11T20:33:35.016Z,22.75
2023-10-11T20:36:01.763Z,22.93
2023-10-11T20:38:29.433Z,22.78
2023-10-11T20:40:55.988Z,22.80
2023-10-11T20:43:24.080Z,22.78
2023-10-11T20:45:52.113Z,22.77
2023-10-11T20:48:22.641Z,22.76
2023-10-11T20:50:53.538Z,22.79
2023-10-11T20:53:20.229Z,22.73
2023-10-11T20:55:48.974Z,22.77
2023-10-11T20:58:16.232Z,22.78
2023-10-11T21:00:45.895Z,22.77
2023-10-11T21:03:14.608Z,22.77
2023-10-11T21:05:43.167Z,22.73
2023-10-11T21:08:13.409Z,22.75
2023-10-11T21:10:41.307Z,22.75
2023-10-11T21:13:09.678Z,22.74
2023-10-11T21:15:40.624Z,22.72
2023-10-11T21:18:11.491Z,22.75
2023-10-11T21:20:49.642Z,22.70
2023-10-11T21:23:18.735Z,22.73
2023-10-11T21:26:12.611Z,22.72
2023-10-11T21:28:40.372Z,22.74
2023-10-11T21:31:15.636Z,22.76
2023-10-11T21:33:43.038Z,22.75
2023-10-11T21:36:11.964Z,22.72
2023-10-11T21:38:38.544Z,22.75
2023-10-11T21:41:05.043Z,22.74
2023-10-11T21:43:32.412Z,22.74
2023-10-11T21:46:04.189Z,22.79
2023-10-11T21:48:30.701Z,22.82
2023-10-11T21:50:57.181Z,22.82
2023-10-11T21:53:23.893Z,22.79
2023-10-11T21:55:52.946Z,22.80
2023-10-11T21:58:19.435Z,22.80
2023-10-11T22:01:05.793Z,22.77
2023-10-11T22:03:33.124Z,22.85
2023-10-11T22:06:05.903Z,22.89
2023-10-11T22:08:36.340Z,22.83
2023-10-11T22:11:05.244Z,22.80
2023-10-11T22:13:33.483Z,22.77
2023-10-11T22:16:00.475Z,22.80
2023-10-11T22:18:30.699Z,22.78
2023-10-11T22:21:00.725Z,22.79
2023-10-11T22:23:32.199Z,22.78
2023-10-11T22:25:58.945Z,22.79
2023-10-11T22:28:26.028Z,22.75
2023-10-11T22:30:53.693Z,22.73
2023-10-11T22:33:23.655Z,22.73
2023-10-11T22:35:52.477Z,22.78
2023-10-11T22:38:22.021Z,22.81
2023-10-11T22:40:52.040Z,22.79
2023-10-11T22:43:29.850Z,22.77
2023-10-11T22:45:57.955Z,22.81
2023-10-11T22:48:25.424Z,22.79
2023-10-11T22:50:53.174Z,22.77
2023-10-11T22:53:23.925Z,22.77
2023-10-11T22:55:51.217Z,22.74
2023-10-11T22:58:19.742Z,22.79
2023-10-11T23:00:47.134Z,22.76
2023-10-11T23:03:13.834Z,22.74
2023-10-11T23:05:41.845Z,22.80
2023-10-11T23:08:10.271Z,22.77
2023-10-11T23:10:43.954Z,22.79
2023-10-11T23:13:10.610Z,22.75
2023-10-11T23:15:51.170Z,22.75
2023-10-11T23:18:20.853Z,22.74
2023-10-11T23:20:58.361Z,22.78
2023-10-11T23:23:56.036Z,22.75
2023-10-11T23:26:26.296Z,22.78
2023-10-11T23:28:54.656Z,22.79
2023-10-11T23:31:25.790Z,22.78
2023-10-11T23:33:52.713Z,22.79
2023-10-11T23:36:24.227Z,22.76
2023-10-11T23:39:02.875Z,22.79
2023-10-11T23:41:38.571Z,22.77
2023-10-11T23:44:21.674Z,22.74
2023-10-11T23:47:00.038Z,22.79
2023-10-11T23:49:41.781Z,22.78
2023-10-11T23:52:21.398Z,22.81
2023-10-11T23:54:50.315Z,22.98
2023-10-11T23:57:23.805Z,22.84
2023-10-11T23:59:50.841Z,22.78
